createdAt,value
2023-05-25T00:00:19.034Z,69.40
2023-05-25T00:02:46.555Z,69.20
2023-05-25T00:05:14.363Z,70.90
2023-05-25T00:07:41.531Z,70.60
2023-05-25T00:10:08.991Z,74.30
2023-05-25T00:12:37.730Z,69.70
2023-05-25T00:15:08.183Z,69.70
2023-05-25T00:17:37.262Z,69.20
2023-05-25T00:20:07.804Z,69.90
2023-05-25T00:22:38.385Z,70.70
2023-05-25T00:25:06.495Z,72.30
2023-05-25T00:27:33.479Z,75.10
2023-05-25T00:30:00.480Z,71.90
2023-05-25T00:32:27.500Z,70.40
2023-05-25T00:34:55.097Z,71.80
2023-05-25T00:37:22.903Z,73.50
2023-05-25T00:39:49.807Z,76.00
2023-05-25T00:42:16.666Z,76.60
2023-05-25T00:44:43.668Z,78.20
2023-05-25T00:47:11.865Z,75.50
2023-05-25T00:49:38.932Z,76.10
2023-05-25T00:52:06.249Z,75.60
2023-05-25T00:54:35.229Z,74.30
2023-05-25T00:57:04.821Z,74.00
2023-05-25T00:59:46.557Z,72.10
2023-05-25T01:02:17.055Z,72.40
2023-05-25T01:04:47.350Z,74.50
2023-05-25T01:07:19.045Z,77.40
2023-05-25T01:09:47.702Z,76.00
2023-05-25T01:12:16.428Z,78.10
2023-05-25T01:14:48.236Z,78.90
2023-05-25T01:17:15.932Z,80.40
2023-05-25T01:19:49.556Z,81.00
2023-05-25T01:22:28.985Z,80.70
2023-05-25T01:25:03.787Z,79.20
2023-05-25T01:27:43.639Z,79.50
2023-05-25T01:30:15.437Z,80.20
2023-05-25T01:32:43.747Z,79.20
2023-05-25T01:35:11.688Z,79.70
2023-05-25T01:37:45.025Z,79.30
2023-05-25T01:40:13.229Z,80.20
2023-05-25T01:42:40.334Z,80.70
2023-05-25T01:45:08.989Z,80.90
2023-05-25T01:48:03.527Z,80.30
2023-05-25T01:50:51.784Z,80.10
2023-05-25T01:53:22.864Z,80.60
2023-05-25T01:55:58.624Z,80.30
2023-05-25T01:58:27.430Z,79.60
2023-05-25T02:00:56.632Z,80.00
2023-05-25T02:03:23.682Z,78.90
2023-05-25T02:05:50.652Z,76.90
2023-05-25T02:08:17.897Z,76.50
2023-05-25T02:10:44.744Z,76.30
2023-05-25T02:13:11.717Z,77.50
2023-05-25T02:15:38.697Z,76.70
2023-05-25T02:18:08.583Z,76.40
2023-05-25T02:20:37.824Z,79.00
2023-05-25T02:23:04.912Z,78.20
2023-05-25T02:25:31.784Z,77.00
2023-05-25T02:27:58.669Z,76.80
2023-05-25T02:30:25.551Z,76.90
2023-05-25T02:32:53.974Z,77.70
2023-05-25T02:35:20.831Z,76.90
2023-05-25T02:37:50.274Z,77.90
2023-05-25T02:40:18.424Z,78.10
2023-05-25T02:42:45.347Z,77.00
2023-05-25T02:45:12.497Z,76.70
2023-05-25T02:47:39.530Z,77.20
2023-05-25T02:50:06.994Z,76.80
2023-05-25T02:52:33.891Z,76.40
2023-05-25T02:55:01.120Z,79.60
2023-05-25T02:57:29.129Z,80.40
2023-05-25T02:59:55.950Z,81.20
2023-05-25T03:02:25.662Z,78.80
2023-05-25T03:04:55.701Z,78.40
2023-05-25T03:07:22.645Z,77.80
2023-05-25T03:09:49.506Z,78.70
2023-05-25T03:12:16.447Z,79.30
2023-05-25T03:14:43.261Z,81.50
2023-05-25T03:17:10.379Z,82.80
2023-05-25T03:19:37.312Z,82.50
2023-05-25T03:22:04.536Z,81.40
2023-05-25T03:24:31.382Z,77.70
2023-05-25T03:26:58.241Z,77.70
2023-05-25T03:29:25.069Z,77.80
2023-05-25T03:31:51.915Z,78.50
2023-05-25T03:34:18.957Z,80.60
2023-05-25T03:36:47.523Z,78.80
2023-05-25T03:39:14.436Z,79.50
2023-05-25T03:41:43.039Z,81.20
2023-05-25T03:44:10.865Z,80.60
2023-05-25T03:46:38.349Z,79.20
2023-05-25T03:49:05.779Z,79.40
2023-05-25T03:51:32.666Z,82.20
2023-05-25T03:53:59.473Z,82.20
2023-05-25T03:56:26.398Z,82.10
2023-05-25T03:58:53.269Z,82.50
2023-05-25T04:01:20.682Z,82.80
2023-05-25T04:03:47.664Z,81.80
2023-05-25T04:06:19.859Z,78.60
2023-05-25T04:08:47.918Z,76.90
2023-05-25T04:11:14.779Z,76.20
2023-05-25T04:13:41.620Z,76.00
2023-05-25T04:16:09.644Z,75.90
2023-05-25T04:18:36.714Z,75.30
2023-05-25T04:21:03.769Z,75.20
2023-05-25T04:23:31.252Z,75.90
2023-05-25T04:25:58.620Z,75.60
2023-05-25T04:28:25.675Z,75.80
2023-05-25T04:30:56.870Z,75.40
2023-05-25T04:33:24.663Z,75.20
2023-05-25T04:35:51.689Z,74.80
2023-05-25T04:38:18.636Z,74.80
2023-05-25T04:40:46.461Z,74.90
2023-05-25T04:43:13.779Z,74.60
2023-05-25T04:45:40.787Z,74.30
2023-05-25T04:48:07.794Z,74.10
2023-05-25T04:50:34.718Z,73.90
2023-05-25T04:53:01.545Z,74.30
2023-05-25T04:55:28.683Z,74.30
2023-05-25T04:57:55.526Z,73.50
2023-05-25T05:00:22.475Z,74.00
2023-05-25T05:02:50.058Z,74.30
2023-05-25T05:05:17.899Z,73.60
2023-05-25T05:07:44.897Z,74.00
2023-05-25T05:10:11.818Z,73.20
2023-05-25T05:12:38.650Z,74.10
2023-05-25T05:15:06.092Z,72.80
2023-05-25T05:17:33.264Z,73.70
2023-05-25T05:20:00.458Z,73.60
2023-05-25T05:22:27.457Z,72.70
2023-05-25T05:24:57.469Z,72.80
2023-05-25T05:27:26.175Z,72.90
2023-05-25T05:29:53.170Z,73.20
2023-05-25T05:32:21.075Z,72.80
2023-05-25T05:34:49.222Z,72.60
2023-05-25T05:37:16.147Z,73.10
2023-05-25T05:39:43.048Z,72.60
2023-05-25T05:42:09.894Z,71.30
2023-05-25T05:44:37.061Z,70.80
2023-05-25T05:47:04.405Z,71.40
2023-05-25T05:49:31.915Z,71.50
2023-05-25T05:51:59.293Z,72.70
2023-05-25T05:54:28.027Z,69.90
2023-05-25T05:56:55.174Z,70.70
2023-05-25T05:59:22.488Z,69.00
2023-05-25T06:01:49.678Z,69.30
2023-05-25T06:04:18.936Z,69.80
2023-05-25T06:06:46.173Z,69.50
2023-05-25T06:09:13.768Z,69.00
2023-05-25T06:11:40.667Z,69.20
2023-05-25T06:14:07.539Z,68.80
2023-05-25T06:16:34.459Z,68.40
2023-05-25T06:19:01.513Z,68.20
2023-05-25T06:21:28.504Z,68.30
2023-05-25T06:23:57.777Z,65.20
2023-05-25T06:26:25.009Z,66.30
2023-05-25T06:28:51.976Z,65.90
2023-05-25T06:31:19.165Z,66.90
2023-05-25T06:33:46.159Z,66.50
2023-05-25T06:36:15.830Z,66.50
2023-05-25T06:38:43.063Z,65.90
2023-05-25T06:41:12.820Z,66.90
2023-05-25T06:43:39.765Z,64.80
2023-05-25T06:46:06.710Z,65.70
2023-05-25T06:48:33.598Z,63.60
2023-05-25T06:51:00.645Z,64.50
2023-05-25T06:53:27.569Z,63.40
2023-05-25T06:55:54.474Z,63.40
2023-05-25T06:58:21.312Z,63.70
2023-05-25T07:00:48.190Z,63.80
2023-05-25T07:03:15.132Z,64.90
2023-05-25T07:05:42.549Z,63.90
2023-05-25T07:08:09.587Z,62.60
2023-05-25T07:10:36.428Z,64.80
2023-05-25T07:13:03.272Z,63.20
2023-05-25T07:15:30.360Z,63.60
2023-05-25T07:17:57.438Z,63.20
2023-05-25T07:20:24.649Z,62.00
2023-05-25T07:22:53.305Z,61.90
2023-05-25T07:25:20.268Z,62.30
2023-05-25T07:27:50.475Z,62.50
2023-05-25T07:30:17.422Z,62.50
2023-05-25T07:32:44.337Z,62.10
2023-05-25T07:35:11.235Z,62.40
2023-05-25T07:37:38.130Z,62.10
2023-05-25T07:40:06.148Z,61.60
2023-05-25T07:42:34.516Z,61.10
2023-05-25T07:45:02.092Z,61.60
2023-05-25T07:47:29.609Z,59.90
2023-05-25T07:49:56.668Z,60.40
2023-05-25T07:52:23.515Z,60.50
2023-05-25T07:54:50.419Z,61.70
2023-05-25T07:57:17.296Z,60.50
2023-05-25T07:59:44.900Z,59.10
2023-05-25T08:02:12.106Z,60.40
2023-05-25T08:04:39.104Z,61.60
2023-05-25T08:07:06.304Z,60.20
2023-05-25T08:09:33.141Z,58.90
2023-05-25T08:12:14.971Z,60.00
2023-05-25T08:14:47.026Z,59.40
2023-05-25T08:17:13.971Z,58.20
2023-05-25T08:19:40.912Z,57.80
2023-05-25T08:22:07.871Z,60.80
2023-05-25T08:24:34.706Z,59.40
2023-05-25T08:27:02.046Z,57.00
2023-05-25T08:29:29.178Z,57.70
2023-05-25T08:31:56.021Z,58.00
2023-05-25T08:34:23.036Z,56.50
2023-05-25T08:36:50.197Z,58.20
2023-05-25T08:39:17.069Z,57.70
2023-05-25T08:41:45.224Z,58.70
2023-05-25T08:44:14.278Z,55.80
2023-05-25T08:46:41.539Z,58.00
2023-05-25T08:49:13.389Z,56.50
2023-05-25T08:51:51.307Z,55.80
2023-05-25T08:54:34.174Z,56.80
2023-05-25T08:57:13.235Z,57.00
2023-05-25T08:59:40.031Z,56.00
2023-05-25T09:02:30.621Z,53.30
2023-05-25T09:05:01.355Z,54.50
2023-05-25T09:07:29.473Z,55.60
2023-05-25T09:09:57.757Z,54.70
2023-05-25T09:12:25.125Z,53.50
2023-05-25T09:14:53.882Z,55.60
2023-05-25T09:17:21.338Z,55.50
2023-05-25T09:19:48.356Z,52.60
2023-05-25T09:22:16.702Z,51.80
2023-05-25T09:24:45.181Z,52.60
2023-05-25T09:27:13.734Z,52.70
2023-05-25T09:29:40.931Z,55.20
2023-05-25T09:32:08.168Z,52.10
2023-05-25T09:34:35.520Z,52.60
2023-05-25T09:37:16.762Z,53.50
2023-05-25T09:39:44.582Z,52.90
2023-05-25T09:42:12.054Z,52.80
2023-05-25T09:44:42.722Z,51.90
2023-05-25T09:47:09.730Z,54.00
2023-05-25T09:49:36.900Z,53.20
2023-05-25T09:52:03.939Z,53.00
2023-05-25T09:54:31.252Z,53.00
2023-05-25T09:56:59.810Z,52.20
2023-05-25T09:59:27.581Z,52.60
2023-05-25T10:01:54.703Z,52.10
2023-05-25T10:04:21.716Z,49.70
2023-05-25T10:06:52.148Z,48.30
2023-05-25T10:09:20.191Z,52.40
2023-05-25T10:11:51.278Z,51.80
2023-05-25T10:14:27.120Z,50.10
2023-05-25T10:16:58.136Z,51.10
2023-05-25T10:19:59.673Z,50.50
2023-05-25T10:22:40.111Z,49.40
2023-05-25T10:25:25.886Z,50.30
2023-05-25T10:28:27.253Z,51.60
2023-05-25T10:30:57.829Z,50.40
2023-05-25T10:33:25.151Z,48.60
2023-05-25T10:36:02.927Z,49.00
2023-05-25T10:38:39.263Z,51.10
2023-05-25T10:41:08.827Z,47.40
2023-05-25T10:43:36.182Z,51.10
2023-05-25T10:46:04.379Z,50.10
2023-05-25T10:48:51.925Z,49.70
2023-05-25T10:51:22.244Z,50.40
2023-05-25T10:54:00.017Z,47.90
2023-05-25T10:56:26.839Z,46.90
2023-05-25T10:58:53.741Z,47.60
2023-05-25T11:01:20.794Z,45.20
2023-05-25T11:03:56.289Z,47.10
2023-05-25T11:06:44.145Z,46.50
2023-05-25T11:09:28.434Z,45.90
2023-05-25T11:12:01.886Z,46.70
2023-05-25T11:14:37.124Z,45.00
2023-05-25T11:17:03.938Z,45.80
2023-05-25T11:19:40.230Z,46.30
2023-05-25T11:22:30.916Z,44.80
2023-05-25T11:24:59.740Z,46.70
2023-05-25T11:27:30.970Z,44.00
2023-05-25T11:29:59.256Z,43.90
2023-05-25T11:32:27.413Z,44.70
2023-05-25T11:34:57.176Z,46.80
2023-05-25T11:37:26.353Z,44.10
2023-05-25T11:39:53.649Z,46.00
2023-05-25T11:42:22.339Z,45.60
2023-05-25T11:44:49.426Z,44.50
2023-05-25T11:47:22.695Z,42.60
2023-05-25T11:49:50.017Z,46.80
2023-05-25T11:52:18.841Z,42.70
2023-05-25T11:54:46.647Z,42.60
2023-05-25T11:57:27.005Z,44.00
2023-05-25T11:59:55.141Z,42.90
2023-05-25T12:02:23.065Z,43.00
2023-05-25T12:05:11.125Z,42.90
2023-05-25T12:07:44.574Z,42.20
2023-05-25T12:10:13.350Z,43.00
2023-05-25T12:12:51.097Z,42.10
2023-05-25T12:15:25.149Z,41.90
2023-05-25T12:17:53.809Z,42.10
2023-05-25T12:20:21.926Z,43.70
2023-05-25T12:22:49.068Z,42.60
2023-05-25T12:25:21.008Z,42.50
2023-05-25T12:27:47.912Z,42.50
2023-05-25T12:30:14.850Z,41.80
2023-05-25T12:33:04.907Z,39.70
2023-05-25T12:35:48.320Z,41.00
2023-05-25T12:38:18.339Z,41.60
2023-05-25T12:40:45.474Z,38.30
2023-05-25T12:43:13.242Z,37.80
2023-05-25T12:45:43.974Z,37.50
2023-05-25T12:48:11.079Z,37.50
2023-05-25T12:50:38.240Z,37.70
2023-05-25T12:53:05.579Z,36.50
2023-05-25T12:55:35.460Z,35.00
2023-05-25T12:58:07.477Z,36.20
2023-05-25T13:00:40.210Z,36.70
2023-05-25T13:03:10.708Z,36.00
2023-05-25T13:05:38.365Z,35.60
2023-05-25T13:08:06.189Z,34.20
2023-05-25T13:10:33.886Z,32.60
2023-05-25T13:13:01.126Z,33.20
2023-05-25T13:15:28.963Z,32.40
2023-05-25T13:17:58.485Z,33.80
2023-05-25T13:20:26.676Z,33.60
2023-05-25T13:22:55.828Z,31.40
2023-05-25T13:25:23.189Z,33.90
2023-05-25T13:27:51.569Z,32.10
2023-05-25T13:30:20.688Z,34.30
2023-05-25T13:32:50.322Z,33.70
2023-05-25T13:35:22.925Z,31.80
2023-05-25T13:37:50.975Z,34.20
2023-05-25T13:40:17.907Z,33.80
2023-05-25T13:42:44.777Z,33.20
2023-05-25T13:45:11.672Z,32.80
2023-05-25T13:47:38.783Z,30.60
2023-05-25T13:50:06.345Z,29.00
2023-05-25T13:52:33.236Z,30.40
2023-05-25T13:55:00.056Z,30.90
2023-05-25T13:57:27.161Z,32.10
2023-05-25T13:59:54.051Z,31.70
2023-05-25T14:02:20.965Z,31.40
2023-05-25T14:04:47.944Z,32.90
2023-05-25T14:07:14.806Z,30.50
2023-05-25T14:09:41.679Z,28.50
2023-05-25T14:12:08.610Z,30.50
2023-05-25T14:14:35.563Z,29.50
2023-05-25T14:17:02.607Z,30.70
2023-05-25T14:19:29.726Z,29.90
2023-05-25T14:24:26.387Z,30.20
2023-05-25T14:26:53.207Z,28.90
2023-05-25T14:29:20.079Z,28.30
2023-05-25T14:31:47.145Z,28.60
2023-05-25T14:34:13.978Z,28.60
2023-05-25T14:36:40.788Z,28.80
2023-05-25T14:39:08.350Z,30.20
2023-05-25T14:41:35.984Z,29.70
2023-05-25T14:44:03.039Z,29.20
2023-05-25T14:46:30.000Z,28.80
2023-05-25T14:48:56.915Z,29.40
2023-05-25T14:51:25.537Z,29.00
2023-05-25T14:53:53.364Z,28.80
2023-05-25T14:56:24.786Z,29.00
2023-05-25T14:58:51.675Z,30.40
2023-05-25T15:01:18.536Z,30.10
2023-05-25T15:03:45.596Z,29.70
2023-05-25T15:06:12.524Z,31.80
2023-05-25T15:08:39.366Z,31.30
2023-05-25T15:11:08.076Z,30.20
2023-05-25T15:13:34.898Z,28.90
2023-05-25T15:16:01.767Z,28.90
2023-05-25T15:18:28.862Z,30.40
2023-05-25T15:20:57.950Z,30.30
2023-05-25T15:23:24.825Z,31.00
2023-05-25T15:25:51.669Z,29.80
2023-05-25T15:28:18.601Z,28.50
2023-05-25T15:30:45.572Z,28.60
2023-05-25T15:33:13.929Z,28.00
2023-05-25T15:35:41.061Z,30.00
2023-05-25T15:38:07.914Z,30.30
2023-05-25T15:40:37.019Z,31.20
2023-05-25T15:43:04.011Z,30.00
2023-05-25T15:45:31.125Z,30.50
2023-05-25T15:47:58.051Z,30.40
2023-05-25T15:50:24.982Z,29.40
2023-05-25T15:52:51.933Z,30.40
2023-05-25T15:55:18.907Z,30.00
2023-05-25T15:57:45.766Z,31.50
2023-05-25T16:00:13.322Z,30.90
2023-05-25T16:02:40.565Z,31.90
2023-05-25T16:05:09.567Z,31.60
2023-05-25T16:07:36.866Z,31.30
2023-05-25T16:10:03.950Z,31.30
2023-05-25T16:12:30.969Z,29.20
2023-05-25T16:14:57.847Z,31.30
2023-05-25T16:17:25.053Z,30.30
2023-05-25T16:19:52.030Z,31.70
2023-05-25T16:22:19.245Z,31.20
2023-05-25T16:24:46.098Z,31.90
2023-05-25T16:27:12.966Z,30.90
2023-05-25T16:29:39.823Z,30.00
2023-05-25T16:32:06.803Z,28.40
2023-05-25T16:34:33.743Z,29.30
2023-05-25T16:37:00.578Z,30.10
2023-05-25T16:39:27.418Z,29.60
2023-05-25T16:41:54.394Z,29.60
2023-05-25T16:44:21.280Z,30.10
2023-05-25T16:46:48.155Z,29.10
2023-05-25T16:49:15.055Z,29.50
2023-05-25T16:51:41.913Z,29.80
2023-05-25T16:54:08.756Z,29.30
2023-05-25T16:56:35.964Z,29.70
2023-05-25T16:59:02.835Z,29.50
2023-05-25T17:01:29.878Z,30.20
2023-05-25T17:03:56.886Z,30.20
2023-05-25T17:06:24.512Z,30.40
2023-05-25T17:08:51.386Z,29.80
2023-05-25T17:11:18.214Z,30.80
2023-05-25T17:13:45.023Z,30.70
2023-05-25T17:16:11.906Z,31.40
2023-05-25T17:18:38.979Z,32.40
2023-05-25T17:21:05.930Z,33.00
2023-05-25T17:23:32.732Z,34.90
2023-05-25T17:25:59.556Z,36.30
2023-05-25T17:28:27.643Z,37.30
2023-05-25T17:30:56.587Z,38.20
2023-05-25T17:33:23.578Z,39.40
2023-05-25T17:35:50.539Z,40.00
2023-05-25T17:38:17.493Z,40.90
2023-05-25T17:40:44.318Z,40.60
2023-05-25T17:43:11.235Z,41.90
2023-05-25T17:45:38.136Z,41.70
2023-05-25T17:48:05.203Z,41.80
2023-05-25T17:50:32.176Z,42.00
2023-05-25T17:52:59.002Z,40.80
2023-05-25T17:55:25.816Z,40.60
2023-05-25T17:57:52.673Z,42.40
2023-05-25T18:00:22.853Z,42.20
2023-05-25T18:02:51.630Z,42.50
2023-05-25T18:05:18.960Z,42.70
2023-05-25T18:07:45.812Z,42.40
2023-05-25T18:10:14.542Z,44.70
2023-05-25T18:12:41.611Z,45.00
2023-05-25T18:15:08.970Z,43.20
2023-05-25T18:17:35.866Z,42.50
2023-05-25T18:20:02.910Z,45.70
2023-05-25T18:22:30.051Z,47.80
2023-05-25T18:24:56.880Z,43.80
2023-05-25T18:27:23.809Z,45.10
2023-05-25T18:29:50.725Z,45.70
2023-05-25T18:32:17.558Z,53.50
2023-05-25T18:34:45.130Z,57.60
2023-05-25T18:37:12.057Z,56.50
2023-05-25T18:39:38.976Z,53.70
2023-05-25T18:42:06.223Z,59.60
2023-05-25T18:44:33.334Z,59.70
2023-05-25T18:47:00.281Z,59.50
2023-05-25T18:49:32.671Z,57.20
2023-05-25T18:51:59.854Z,64.50
2023-05-25T18:54:27.140Z,64.70
2023-05-25T18:56:53.989Z,63.80
2023-05-25T18:59:21.068Z,65.20
2023-05-25T19:01:47.974Z,68.70
2023-05-25T19:04:14.984Z,67.70
2023-05-25T19:06:41.967Z,69.20
2023-05-25T19:09:08.838Z,70.80
2023-05-25T19:11:36.223Z,69.70
2023-05-25T19:14:03.147Z,72.20
2023-05-25T19:16:30.153Z,71.50
2023-05-25T19:18:57.018Z,69.60
2023-05-25T19:21:24.136Z,68.70
2023-05-25T19:23:51.756Z,67.90
2023-05-25T19:26:18.826Z,69.10
2023-05-25T19:28:45.664Z,70.60
2023-05-25T19:31:12.717Z,69.50
2023-05-25T19:33:39.688Z,70.90
2023-05-25T19:36:06.603Z,69.80
2023-05-25T19:38:41.346Z,69.70
2023-05-25T19:41:09.183Z,68.90
2023-05-25T19:43:36.176Z,70.20
2023-05-25T19:46:03.757Z,71.20
2023-05-25T19:48:31.195Z,70.90
2023-05-25T19:50:58.090Z,72.10
2023-05-25T19:53:24.969Z,72.10
2023-05-25T19:55:51.956Z,73.40
2023-05-25T19:58:18.837Z,73.40
2023-05-25T20:00:45.824Z,73.10
2023-05-25T20:03:12.844Z,74.70
2023-05-25T20:05:40.180Z,75.50
2023-05-25T20:08:07.029Z,75.20
2023-05-25T20:10:38.917Z,75.50
2023-05-25T20:13:07.371Z,75.20
2023-05-25T20:15:34.504Z,76.40
2023-05-25T20:18:02.394Z,77.10
2023-05-25T20:20:29.444Z,77.00
2023-05-25T20:22:56.494Z,76.20
2023-05-25T20:25:23.377Z,77.10
2023-05-25T20:27:50.232Z,76.60
2023-05-25T20:30:17.332Z,77.50
2023-05-25T20:32:44.273Z,78.20
2023-05-25T20:35:11.817Z,78.60
2023-05-25T20:37:38.778Z,78.80
2023-05-25T20:40:06.732Z,79.20
2023-05-25T20:42:33.643Z,78.80
2023-05-25T20:45:00.886Z,78.20
2023-05-25T20:47:27.729Z,78.40
2023-05-25T20:49:54.617Z,78.30
2023-05-25T20:52:22.759Z,78.40
2023-05-25T20:54:49.604Z,78.40
2023-05-25T20:57:16.580Z,78.50
2023-05-25T20:59:43.462Z,78.50
2023-05-25T21:02:10.552Z,78.90
2023-05-25T21:04:37.443Z,78.90
2023-05-25T21:07:04.483Z,79.00
2023-05-25T21:09:31.362Z,79.10
2023-05-25T21:11:59.122Z,79.50
2023-05-25T21:14:25.970Z,79.80
2023-05-25T21:16:52.921Z,79.60
2023-05-25T21:19:19.827Z,80.10
2023-05-25T21:21:46.694Z,79.90
2023-05-25T21:24:13.573Z,80.40
2023-05-25T21:26:40.475Z,80.90
2023-05-25T21:29:07.763Z,80.90
2023-05-25T21:31:35.161Z,81.20
2023-05-25T21:34:02.096Z,81.80
2023-05-25T21:36:29.421Z,81.20
2023-05-25T21:38:56.353Z,80.80
2023-05-25T21:41:23.413Z,80.80
2023-05-25T21:43:50.789Z,81.10
2023-05-25T21:46:17.668Z,80.70
2023-05-25T21:48:44.536Z,81.20
2023-05-25T21:51:11.421Z,80.60
2023-05-25T21:53:38.270Z,80.80
2023-05-25T21:56:05.169Z,80.80
2023-05-25T21:58:31.994Z,80.90
2023-05-25T22:00:59.149Z,80.60
2023-05-25T22:03:26.163Z,81.20
2023-05-25T22:05:53.107Z,80.90
2023-05-25T22:08:19.975Z,81.10
2023-05-25T22:10:46.915Z,81.30
2023-05-25T22:13:13.787Z,81.30
2023-05-25T22:15:40.662Z,81.60
2023-05-25T22:18:07.580Z,81.00
2023-05-25T22:20:38.355Z,81.60
2023-05-25T22:23:06.003Z,81.30
2023-05-25T22:25:32.875Z,83.00
2023-05-25T22:27:59.717Z,83.10
2023-05-25T22:30:26.547Z,82.80
2023-05-25T22:32:53.554Z,82.90
2023-05-25T22:35:20.562Z,82.90
2023-05-25T22:37:47.413Z,82.80
2023-05-25T22:40:14.315Z,82.70
2023-05-25T22:42:41.173Z,82.50
2023-05-25T22:45:08.541Z,82.40
2023-05-25T22:47:35.756Z,82.10
2023-05-25T22:50:02.637Z,82.20
2023-05-25T22:52:30.003Z,82.90
2023-05-25T22:54:56.831Z,82.50
2023-05-25T22:57:23.645Z,83.00
2023-05-25T22:59:50.469Z,82.80
2023-05-25T23:02:17.486Z,82.50
2023-05-25T23:04:44.535Z,83.00
2023-05-25T23:07:11.600Z,82.50
2023-05-25T23:09:38.506Z,83.10
2023-05-25T23:12:06.274Z,83.20
2023-05-25T23:14:35.686Z,82.10
2023-05-25T23:17:02.616Z,82.80
2023-05-25T23:19:29.534Z,83.50
2023-05-25T23:21:58.495Z,82.70
2023-05-25T23:24:25.497Z,83.40
2023-05-25T23:26:53.019Z,83.90
2023-05-25T23:29:19.949Z,84.10
2023-05-25T23:31:47.758Z,83.10
2023-05-25T23:34:14.951Z,83.80
2023-05-25T23:36:42.762Z,84.40
2023-05-25T23:39:09.684Z,83.90
2023-05-25T23:41:36.521Z,83.90
2023-05-25T23:44:03.397Z,83.70
2023-05-25T23:46:31.799Z,84.00
2023-05-25T23:48:58.752Z,84.60
2023-05-25T23:51:25.879Z,84.50
2023-05-25T23:53:52.700Z,84.30
2023-05-25T23:56:20.743Z,84.40
2023-05-25T23:58:47.679Z,84.00
